Hülben Airfield

DE-0309 · 巴登-符腾堡, 德国

罗盘
风向 的 风向 320°
风: 2 kt, 1 beaufort

添加一条跑道以查看侧风和逆风信息。

添置 跑道
0 1.000 2.000 3.000 4.000 5.000
FEW 700 ft
OVC 4.200 ft
METAR EDJA 030150Z AUTO 32002KT 9999 // FEW007/// OVC042/// 10/09 Q1025

METAR Hülben Airfield - DE-0309

Hülben Airfield是Hülben,德国中的小机场。 视场标高为2.385 ft。 该领域的国际民航组织标志是DE-0309.

这份报告是针对2022年10月3日 03:50, 当地时间在Memmingen Allgau Airport进行的。

机场观察

风向为320°,速度为2 kt。

可见度为10 km 或者更多。

有几云在700 ft的高度 和 乌云密布在4.200 ft的高度。 破损或更高的上限为4.200 ft。

温度为10 °C,阵风为9 °C。 露点为9 °C,相对湿度为94%。 海平面上的气压为1025 hPa (QNH)。

白天

今天,太阳从07:24升起,在18:58降落。 这适用于Hülben Airfield,世界夏令时可能有所不同。 当地时间与世界标准时间之间的时差为+2 小时。 夏令时目前正在进行中。

公司介绍

我们没有关于这个机场的公司信息。

体会

到Vliegles.nl去找飞行课程,跳伞和其他飞行体验。 浏览页面,了解Hülben Airfield附近所有可用的活动。 你也可以使用搜索功能来寻找你所在地附近的特定飞行课程、跳伞或其他飞行体验。

乌云

700 ft FEW 几云
4.200 ft OVC 乌云密布

温度 & 天气

温度 10 °C
露点 9 °C
相对湿度 94%
风寒 9 °C
Kp-index 3 (0-9)

白天

日出
07:21 (3h 10m)
中午
13:08
日落
18:55

小工具

你想在你的网站上有一个关于Hülben Airfield的当前航空天气(METAR)的小部件吗?

</> 显示HTML代码

我们和第三方通过cookies跟踪您在我们网站上的上网行为。如果您继续,我们认为您同意我们的cookie政策。 了解更多